Terminal Aerodrome Forecast
Issued by NWS

Home | Current Version | Previous Version | Text Only | Print | Product List | Glossary On
Versions: 1 2 3 4 5 6 7 8 9 10 11 12 13
076
FTUS45 KABQ 171124
TAFROW
TAF
KROW 171124Z 1712/1812 01003KT P6SM FEW120
     FM172000 15009KT P6SM SCT100
     FM180500 17007KT P6SM SCT080=

USA.gov is the U.S. government's official web portal to all federal, state and local government web resources and services.